sensor_id;sensor_type;location;lat;lon;timestamp;pressure;altitude;pressure_sealevel;temperature;humidity
71621;BME280;59471;42.254;23.102;2022-12-18T00:01:36;96563.38;;;8.74;95.94
71621;BME280;59471;42.254;23.102;2022-12-18T00:04:07;96570.88;;;8.59;96.79
71621;BME280;59471;42.254;23.102;2022-12-18T00:06:36;96569.72;;;8.71;96.12
71621;BME280;59471;42.254;23.102;2022-12-18T00:09:02;96568.22;;;8.69;96.17
71621;BME280;59471;42.254;23.102;2022-12-18T00:11:29;96574.72;;;8.65;96.42
71621;BME280;59471;42.254;23.102;2022-12-18T00:13:57;96581.13;;;8.88;95.87
71621;BME280;59471;42.254;23.102;2022-12-18T00:16:24;96589.09;;;8.69;95.93
71621;BME280;59471;42.254;23.102;2022-12-18T00:18:53;96589.28;;;8.85;95.73
71621;BME280;59471;42.254;23.102;2022-12-18T00:21:20;96596.16;;;8.86;94.79
71621;BME280;59471;42.254;23.102;2022-12-18T00:23:47;96593.00;;;8.65;95.20
71621;BME280;59471;42.254;23.102;2022-12-18T00:26:19;96615.38;;;8.67;94.74
71621;BME280;59471;42.254;23.102;2022-12-18T00:28:47;96611.84;;;8.58;95.51
71621;BME280;59471;42.254;23.102;2022-12-18T00:31:16;96618.66;;;8.69;95.11
71621;BME280;59471;42.254;23.102;2022-12-18T00:33:43;96619.66;;;8.86;93.73
71621;BME280;59471;42.254;23.102;2022-12-18T00:36:15;96614.16;;;8.89;92.41
71621;BME280;59471;42.254;23.102;2022-12-18T00:38:43;96620.59;;;8.85;92.60
71621;BME280;59471;42.254;23.102;2022-12-18T00:41:10;96620.66;;;8.57;94.33
71621;BME280;59471;42.254;23.102;2022-12-18T00:43:37;96628.09;;;8.80;93.09
71621;BME280;59471;42.254;23.102;2022-12-18T00:46:03;96622.28;;;8.86;91.90
71621;BME280;59471;42.254;23.102;2022-12-18T00:48:30;96622.38;;;8.67;93.36
71621;BME280;59471;42.254;23.102;2022-12-18T00:50:55;96627.97;;;8.72;93.31
71621;BME280;59471;42.254;23.102;2022-12-18T00:53:21;96629.66;;;8.63;93.40
71621;BME280;59471;42.254;23.102;2022-12-18T00:55:46;96625.38;;;8.72;93.05
71621;BME280;59471;42.254;23.102;2022-12-18T00:58:14;96628.03;;;8.62;93.72
71621;BME280;59471;42.254;23.102;2022-12-18T01:00:41;96627.16;;;8.71;92.60
71621;BME280;59471;42.254;23.102;2022-12-18T01:03:07;96627.50;;;8.58;92.78
71621;BME280;59471;42.254;23.102;2022-12-18T01:05:33;96627.81;;;8.55;92.64
71621;BME280;59471;42.254;23.102;2022-12-18T01:08:00;96639.19;;;8.82;91.08
71621;BME280;59471;42.254;23.102;2022-12-18T01:10:26;96639.94;;;8.74;91.13
71621;BME280;59471;42.254;23.102;2022-12-18T01:12:51;96632.16;;;8.65;91.33
71621;BME280;59471;42.254;23.102;2022-12-18T01:15:18;96632.72;;;8.86;89.24
71621;BME280;59471;42.254;23.102;2022-12-18T01:17:44;96628.16;;;8.33;91.77
71621;BME280;59471;42.254;23.102;2022-12-18T01:20:11;96640.22;;;8.34;92.51
71621;BME280;59471;42.254;23.102;2022-12-18T01:22:38;96645.94;;;8.10;91.43
71621;BME280;59471;42.254;23.102;2022-12-18T01:25:03;96646.38;;;8.05;90.81
71621;BME280;59471;42.254;23.102;2022-12-18T01:27:31;96650.41;;;8.27;90.64
71621;BME280;59471;42.254;23.102;2022-12-18T01:29:58;96644.09;;;8.30;90.30
71621;BME280;59471;42.254;23.102;2022-12-18T01:32:23;96652.16;;;8.46;87.75
71621;BME280;59471;42.254;23.102;2022-12-18T01:34:49;96654.25;;;8.33;90.06
71621;BME280;59471;42.254;23.102;2022-12-18T01:37:14;96658.06;;;8.48;89.52
71621;BME280;59471;42.254;23.102;2022-12-18T01:39:40;96656.94;;;8.51;90.15
71621;BME280;59471;42.254;23.102;2022-12-18T01:42:11;96658.94;;;8.39;88.98
71621;BME280;59471;42.254;23.102;2022-12-18T01:45:02;96662.44;;;8.57;89.59
71621;BME280;59471;42.254;23.102;2022-12-18T01:47:44;96660.28;;;8.43;90.32
71621;BME280;59471;42.254;23.102;2022-12-18T01:53:12;96665.50;;;8.43;89.87
71621;BME280;59471;42.254;23.102;2022-12-18T01:55:53;96655.53;;;8.56;88.54
71621;BME280;59471;42.254;23.102;2022-12-18T01:58:29;96665.06;;;8.48;88.75
71621;BME280;59471;42.254;23.102;2022-12-18T02:01:07;96672.34;;;8.44;89.42
71621;BME280;59471;42.254;23.102;2022-12-18T02:03:33;96662.25;;;8.22;89.60
71621;BME280;59471;42.254;23.102;2022-12-18T02:14:23;96670.00;;;7.94;88.98
71621;BME280;59471;42.254;23.102;2022-12-18T02:17:18;96680.44;;;7.94;87.56
71621;BME280;59471;42.254;23.102;2022-12-18T02:20:00;96682.34;;;8.11;87.21
71621;BME280;59471;42.254;23.102;2022-12-18T02:28:12;96683.63;;;8.35;86.12
71621;BME280;59471;42.254;23.102;2022-12-18T02:30:39;96688.03;;;8.34;85.99
71621;BME280;59471;42.254;23.102;2022-12-18T02:33:08;96696.41;;;8.38;86.01
71621;BME280;59471;42.254;23.102;2022-12-18T02:35:37;96701.16;;;8.05;85.22
71621;BME280;59471;42.254;23.102;2022-12-18T02:38:06;96700.72;;;8.10;85.74
71621;BME280;59471;42.254;23.102;2022-12-18T02:40:32;96709.84;;;7.86;85.72
71621;BME280;59471;42.254;23.102;2022-12-18T02:43:15;96700.34;;;7.95;86.70
71621;BME280;59471;42.254;23.102;2022-12-18T02:45:56;96709.53;;;7.99;86.26
71621;BME280;59471;42.254;23.102;2022-12-18T02:48:26;96713.69;;;7.73;85.95
71621;BME280;59471;42.254;23.102;2022-12-18T02:54:00;96714.78;;;7.89;86.24
71621;BME280;59471;42.254;23.102;2022-12-18T02:56:30;96706.22;;;7.97;85.38
71621;BME280;59471;42.254;23.102;2022-12-18T02:59:05;96707.63;;;8.01;85.67
71621;BME280;59471;42.254;23.102;2022-12-18T03:02:02;96711.72;;;7.94;85.75
71621;BME280;59471;42.254;23.102;2022-12-18T03:04:50;96718.19;;;7.90;85.20
71621;BME280;59471;42.254;23.102;2022-12-18T03:07:26;96722.72;;;7.88;84.21
71621;BME280;59471;42.254;23.102;2022-12-18T03:10:00;96730.25;;;8.10;85.04
71621;BME280;59471;42.254;23.102;2022-12-18T03:12:33;96733.44;;;8.04;82.88
71621;BME280;59471;42.254;23.102;2022-12-18T03:15:04;96712.59;;;7.85;83.50
71621;BME280;59471;42.254;23.102;2022-12-18T03:17:34;96735.63;;;7.80;83.95
71621;BME280;59471;42.254;23.102;2022-12-18T03:20:09;96730.00;;;7.65;83.33
71621;BME280;59471;42.254;23.102;2022-12-18T03:22:38;96733.44;;;7.65;83.48
71621;BME280;59471;42.254;23.102;2022-12-18T03:25:09;96737.81;;;7.75;84.15
71621;BME280;59471;42.254;23.102;2022-12-18T03:27:38;96742.50;;;7.81;82.01
71621;BME280;59471;42.254;23.102;2022-12-18T03:30:10;96744.13;;;7.62;83.88
71621;BME280;59471;42.254;23.102;2022-12-18T03:35:43;96745.03;;;7.03;84.80
71621;BME280;59471;42.254;23.102;2022-12-18T03:38:10;96750.94;;;7.15;83.94
71621;BME280;59471;42.254;23.102;2022-12-18T03:41:06;96757.94;;;7.24;85.99
71621;BME280;59471;42.254;23.102;2022-12-18T03:46:21;96769.41;;;7.02;85.49
71621;BME280;59471;42.254;23.102;2022-12-18T03:49:11;96773.97;;;7.10;86.22
71621;BME280;59471;42.254;23.102;2022-12-18T03:51:51;96789.63;;;7.19;85.06
71621;BME280;59471;42.254;23.102;2022-12-18T03:54:20;96790.25;;;7.12;84.55
71621;BME280;59471;42.254;23.102;2022-12-18T03:56:53;96786.72;;;7.13;83.99
71621;BME280;59471;42.254;23.102;2022-12-18T03:59:26;96793.22;;;7.28;84.96
71621;BME280;59471;42.254;23.102;2022-12-18T04:01:53;96786.28;;;7.08;83.79
71621;BME280;59471;42.254;23.102;2022-12-18T04:04:21;96790.44;;;7.20;84.38
71621;BME280;59471;42.254;23.102;2022-12-18T04:06:48;96796.19;;;7.24;84.61
71621;BME280;59471;42.254;23.102;2022-12-18T04:09:15;96805.41;;;7.28;83.59
71621;BME280;59471;42.254;23.102;2022-12-18T04:11:41;96814.31;;;7.25;83.88
71621;BME280;59471;42.254;23.102;2022-12-18T04:14:09;96816.78;;;7.27;83.38
71621;BME280;59471;42.254;23.102;2022-12-18T04:16:35;96820.66;;;7.02;83.71
71621;BME280;59471;42.254;23.102;2022-12-18T04:19:00;96823.78;;;6.95;83.97
71621;BME280;59471;42.254;23.102;2022-12-18T04:21:26;96822.13;;;6.85;85.75
71621;BME280;59471;42.254;23.102;2022-12-18T04:23:52;96826.97;;;6.99;83.86
71621;BME280;59471;42.254;23.102;2022-12-18T04:26:17;96840.59;;;7.12;83.78
71621;BME280;59471;42.254;23.102;2022-12-18T04:28:43;96838.72;;;7.24;83.75
71621;BME280;59471;42.254;23.102;2022-12-18T04:31:08;96843.88;;;7.14;81.68
71621;BME280;59471;42.254;23.102;2022-12-18T04:33:34;96853.53;;;7.24;81.73
71621;BME280;59471;42.254;23.102;2022-12-18T04:35:59;96849.09;;;7.14;81.98
71621;BME280;59471;42.254;23.102;2022-12-18T04:38:25;96858.91;;;7.01;82.30
71621;BME280;59471;42.254;23.102;2022-12-18T04:40:50;96848.50;;;7.01;83.52
71621;BME280;59471;42.254;23.102;2022-12-18T04:43:16;96866.03;;;6.99;81.10
71621;BME280;59471;42.254;23.102;2022-12-18T04:45:41;96865.75;;;7.02;81.56
71621;BME280;59471;42.254;23.102;2022-12-18T04:48:07;96870.94;;;6.92;82.34
71621;BME280;59471;42.254;23.102;2022-12-18T04:50:32;96873.47;;;7.04;82.58
71621;BME280;59471;42.254;23.102;2022-12-18T04:52:58;96876.84;;;6.94;82.13
71621;BME280;59471;42.254;23.102;2022-12-18T04:55:27;96887.22;;;7.15;82.79
71621;BME280;59471;42.254;23.102;2022-12-18T04:57:52;96892.97;;;7.09;82.49
71621;BME280;59471;42.254;23.102;2022-12-18T05:00:18;96892.88;;;7.20;81.47
71621;BME280;59471;42.254;23.102;2022-12-18T05:02:44;96899.31;;;7.16;82.81
71621;BME280;59471;42.254;23.102;2022-12-18T05:05:10;96901.75;;;6.87;81.31
71621;BME280;59471;42.254;23.102;2022-12-18T05:07:35;96895.38;;;7.01;81.45
71621;BME280;59471;42.254;23.102;2022-12-18T05:10:01;96902.22;;;7.02;81.23
71621;BME280;59471;42.254;23.102;2022-12-18T05:12:28;96911.31;;;7.08;80.97
71621;BME280;59471;42.254;23.102;2022-12-18T05:14:53;96906.88;;;6.99;81.23
71621;BME280;59471;42.254;23.102;2022-12-18T05:17:19;96909.47;;;6.78;81.80
71621;BME280;59471;42.254;23.102;2022-12-18T05:19:44;96910.06;;;6.81;81.35
71621;BME280;59471;42.254;23.102;2022-12-18T05:22:10;96921.69;;;6.98;80.25
71621;BME280;59471;42.254;23.102;2022-12-18T05:24:35;96925.88;;;6.68;80.44
71621;BME280;59471;42.254;23.102;2022-12-18T05:27:01;96925.63;;;6.71;79.97
71621;BME280;59471;42.254;23.102;2022-12-18T05:29:27;96921.69;;;6.56;82.28
71621;BME280;59471;42.254;23.102;2022-12-18T05:31:52;96923.59;;;6.54;82.21
71621;BME280;59471;42.254;23.102;2022-12-18T05:34:18;96930.56;;;6.74;80.63
71621;BME280;59471;42.254;23.102;2022-12-18T05:36:43;96925.28;;;6.65;81.57
71621;BME280;59471;42.254;23.102;2022-12-18T05:39:09;96926.56;;;6.49;80.65
71621;BME280;59471;42.254;23.102;2022-12-18T05:41:35;96927.41;;;6.50;81.11
71621;BME280;59471;42.254;23.102;2022-12-18T05:44:00;96931.34;;;6.65;79.98
71621;BME280;59471;42.254;23.102;2022-12-18T05:46:26;96931.53;;;6.53;80.93
71621;BME280;59471;42.254;23.102;2022-12-18T05:48:52;96933.75;;;6.57;81.56
71621;BME280;59471;42.254;23.102;2022-12-18T05:51:19;96932.69;;;6.28;81.59
71621;BME280;59471;42.254;23.102;2022-12-18T05:53:46;96936.06;;;6.39;81.76
71621;BME280;59471;42.254;23.102;2022-12-18T05:56:19;96932.53;;;6.40;82.35
71621;BME280;59471;42.254;23.102;2022-12-18T05:58:51;96948.84;;;6.63;80.37
71621;BME280;59471;42.254;23.102;2022-12-18T06:01:24;96950.50;;;6.64;81.88
71621;BME280;59471;42.254;23.102;2022-12-18T06:03:51;96954.81;;;6.54;81.09
71621;BME280;59471;42.254;23.102;2022-12-18T06:06:19;96955.19;;;6.70;81.17
71621;BME280;59471;42.254;23.102;2022-12-18T06:08:47;96963.75;;;6.40;81.82
71621;BME280;59471;42.254;23.102;2022-12-18T06:11:17;96951.16;;;6.45;80.94
71621;BME280;59471;42.254;23.102;2022-12-18T06:13:44;96957.59;;;6.41;81.24
71621;BME280;59471;42.254;23.102;2022-12-18T06:16:09;96974.31;;;6.60;82.17
71621;BME280;59471;42.254;23.102;2022-12-18T06:18:38;96971.63;;;6.50;80.98
71621;BME280;59471;42.254;23.102;2022-12-18T06:21:04;96969.03;;;6.50;80.15
71621;BME280;59471;42.254;23.102;2022-12-18T06:23:30;96976.03;;;6.38;81.81
71621;BME280;59471;42.254;23.102;2022-12-18T06:25:56;96976.34;;;6.56;81.34
71621;BME280;59471;42.254;23.102;2022-12-18T06:28:21;96980.56;;;6.68;81.33
71621;BME280;59471;42.254;23.102;2022-12-18T06:30:47;96986.19;;;6.73;79.92
71621;BME280;59471;42.254;23.102;2022-12-18T06:33:14;96980.56;;;6.68;81.39
71621;BME280;59471;42.254;23.102;2022-12-18T06:35:40;96982.78;;;6.94;79.72
71621;BME280;59471;42.254;23.102;2022-12-18T06:38:06;96985.81;;;6.99;79.87
71621;BME280;59471;42.254;23.102;2022-12-18T06:40:32;96990.53;;;7.05;80.29
71621;BME280;59471;42.254;23.102;2022-12-18T06:42:58;96997.16;;;7.09;78.76
71621;BME280;59471;42.254;23.102;2022-12-18T06:45:23;96995.47;;;6.66;79.36
71621;BME280;59471;42.254;23.102;2022-12-18T06:47:49;96985.81;;;6.46;78.96
71621;BME280;59471;42.254;23.102;2022-12-18T06:50:15;96996.81;;;5.95;79.90
71621;BME280;59471;42.254;23.102;2022-12-18T06:52:41;97001.31;;;6.15;80.60
71621;BME280;59471;42.254;23.102;2022-12-18T06:55:09;97001.31;;;6.15;80.49
71621;BME280;59471;42.254;23.102;2022-12-18T06:57:35;97010.75;;;5.82;80.94
71621;BME280;59471;42.254;23.102;2022-12-18T07:00:01;97015.03;;;5.95;81.31
71621;BME280;59471;42.254;23.102;2022-12-18T07:02:28;97017.16;;;6.01;80.66
71621;BME280;59471;42.254;23.102;2022-12-18T07:04:53;97011.13;;;6.00;83.14
71621;BME280;59471;42.254;23.102;2022-12-18T07:07:19;97025.03;;;5.88;81.27
71621;BME280;59471;42.254;23.102;2022-12-18T07:09:44;97031.31;;;5.86;82.03
71621;BME280;59471;42.254;23.102;2022-12-18T07:12:10;97037.94;;;6.12;81.21
71621;BME280;59471;42.254;23.102;2022-12-18T07:14:35;97010.50;;;6.08;79.79
71621;BME280;59471;42.254;23.102;2022-12-18T07:17:01;97036.38;;;6.32;80.57
71621;BME280;59471;42.254;23.102;2022-12-18T07:19:27;97046.19;;;6.29;81.33
71621;BME280;59471;42.254;23.102;2022-12-18T07:21:52;97054.44;;;6.56;80.62
71621;BME280;59471;42.254;23.102;2022-12-18T07:24:18;97067.69;;;6.53;80.58
71621;BME280;59471;42.254;23.102;2022-12-18T07:26:46;97060.22;;;6.48;79.15
71621;BME280;59471;42.254;23.102;2022-12-18T07:29:11;97072.31;;;6.27;79.03
71621;BME280;59471;42.254;23.102;2022-12-18T07:31:37;97071.50;;;6.26;80.10
71621;BME280;59471;42.254;23.102;2022-12-18T07:34:03;97077.13;;;6.43;79.86
71621;BME280;59471;42.254;23.102;2022-12-18T07:36:28;97084.22;;;6.52;78.52
71621;BME280;59471;42.254;23.102;2022-12-18T07:38:54;97089.22;;;6.44;78.48
71621;BME280;59471;42.254;23.102;2022-12-18T07:41:19;97091.34;;;6.39;78.78
71621;BME280;59471;42.254;23.102;2022-12-18T07:43:46;97090.66;;;5.80;79.25
71621;BME280;59471;42.254;23.102;2022-12-18T07:46:12;97100.97;;;6.16;78.80
71621;BME280;59471;42.254;23.102;2022-12-18T07:48:40;97102.00;;;6.36;79.21
71621;BME280;59471;42.254;23.102;2022-12-18T07:51:07;97109.81;;;6.47;79.58
71621;BME280;59471;42.254;23.102;2022-12-18T07:53:33;97106.34;;;6.58;79.46
71621;BME280;59471;42.254;23.102;2022-12-18T07:56:02;97107.50;;;6.65;78.73
71621;BME280;59471;42.254;23.102;2022-12-18T07:58:29;97115.44;;;6.52;78.28
71621;BME280;59471;42.254;23.102;2022-12-18T08:01:03;97117.34;;;6.61;77.71
71621;BME280;59471;42.254;23.102;2022-12-18T08:03:32;97128.22;;;6.55;78.07
71621;BME280;59471;42.254;23.102;2022-12-18T08:06:00;97129.84;;;6.79;77.24
71621;BME280;59471;42.254;23.102;2022-12-18T08:08:29;97122.13;;;6.88;77.08
71621;BME280;59471;42.254;23.102;2022-12-18T08:10:55;97130.09;;;6.76;76.75
71621;BME280;59471;42.254;23.102;2022-12-18T08:13:22;97129.69;;;6.25;76.00
71621;BME280;59471;42.254;23.102;2022-12-18T08:15:57;97133.47;;;6.33;78.55
71621;BME280;59471;42.254;23.102;2022-12-18T08:18:23;97133.69;;;6.52;76.79
71621;BME280;59471;42.254;23.102;2022-12-18T08:20:50;97126.50;;;6.22;78.56
71621;BME280;59471;42.254;23.102;2022-12-18T08:23:15;97135.25;;;6.10;76.42
71621;BME280;59471;42.254;23.102;2022-12-18T08:25:41;97137.72;;;6.00;77.38
71621;BME280;59471;42.254;23.102;2022-12-18T08:28:06;97145.75;;;5.97;77.27
71621;BME280;59471;42.254;23.102;2022-12-18T08:30:32;97139.59;;;6.20;76.73
71621;BME280;59471;42.254;23.102;2022-12-18T08:32:57;97137.97;;;6.19;75.66
71621;BME280;59471;42.254;23.102;2022-12-18T08:35:23;97149.06;;;6.10;76.01
71621;BME280;59471;42.254;23.102;2022-12-18T08:37:48;97146.94;;;6.26;76.35
71621;BME280;59471;42.254;23.102;2022-12-18T08:40:14;97149.75;;;6.46;76.43
71621;BME280;59471;42.254;23.102;2022-12-18T08:42:40;97141.97;;;6.57;74.79
71621;BME280;59471;42.254;23.102;2022-12-18T08:45:24;97148.91;;;6.79;74.01
71621;BME280;59471;42.254;23.102;2022-12-18T08:47:49;97148.69;;;6.48;72.31
71621;BME280;59471;42.254;23.102;2022-12-18T08:50:15;97144.94;;;6.30;73.46
71621;BME280;59471;42.254;23.102;2022-12-18T08:52:41;97141.97;;;6.35;75.33
71621;BME280;59471;42.254;23.102;2022-12-18T08:55:07;97148.59;;;6.39;74.49
71621;BME280;59471;42.254;23.102;2022-12-18T08:57:33;97145.28;;;6.37;74.08
71621;BME280;59471;42.254;23.102;2022-12-18T08:59:59;97145.88;;;6.40;74.08
71621;BME280;59471;42.254;23.102;2022-12-18T09:02:24;97142.88;;;6.67;73.71
71621;BME280;59471;42.254;23.102;2022-12-18T09:04:50;97150.72;;;6.56;72.71
71621;BME280;59471;42.254;23.102;2022-12-18T09:07:15;97155.66;;;6.70;74.93
71621;BME280;59471;42.254;23.102;2022-12-18T09:09:41;97149.91;;;6.11;74.04
71621;BME280;59471;42.254;23.102;2022-12-18T09:12:06;97151.22;;;6.28;73.93
71621;BME280;59471;42.254;23.102;2022-12-18T09:14:32;97150.72;;;6.56;74.38
71621;BME280;59471;42.254;23.102;2022-12-18T09:16:58;97148.59;;;6.50;70.95
71621;BME280;59471;42.254;23.102;2022-12-18T09:19:23;97141.28;;;6.44;72.13
71621;BME280;59471;42.254;23.102;2022-12-18T09:21:49;97141.97;;;6.46;73.03
71621;BME280;59471;42.254;23.102;2022-12-18T09:24:15;97151.91;;;6.63;73.29
71621;BME280;59471;42.254;23.102;2022-12-18T09:26:41;97129.84;;;6.79;73.35
71621;BME280;59471;42.254;23.102;2022-12-18T09:29:06;97136.22;;;6.86;71.90
71621;BME280;59471;42.254;23.102;2022-12-18T09:31:33;97129.47;;;6.94;74.07
71621;BME280;59471;42.254;23.102;2022-12-18T09:33:59;97127.91;;;7.03;71.77
71621;BME280;59471;42.254;23.102;2022-12-18T09:36:25;97131.69;;;6.99;70.54
71621;BME280;59471;42.254;23.102;2022-12-18T09:38:50;97124.94;;;6.53;73.55
71621;BME280;59471;42.254;23.102;2022-12-18T09:49:26;97124.91;;;6.64;73.01
71621;BME280;59471;42.254;23.102;2022-12-18T09:51:59;97127.03;;;6.70;72.75
71621;BME280;59471;42.254;23.102;2022-12-18T09:54:46;97125.97;;;6.73;73.98
71621;BME280;59471;42.254;23.102;2022-12-18T09:57:19;97131.75;;;6.77;72.73
71621;BME280;59471;42.254;23.102;2022-12-18T09:59:54;97143.50;;;6.60;73.47
71621;BME280;59471;42.254;23.102;2022-12-18T10:02:26;97130.28;;;6.40;75.73
71621;BME280;59471;42.254;23.102;2022-12-18T10:16:16;97123.91;;;6.88;73.68
71621;BME280;59471;42.254;23.102;2022-12-18T10:24:42;97113.31;;;6.68;73.11
71621;BME280;59471;42.254;23.102;2022-12-18T10:27:17;97118.63;;;6.78;73.14
71621;BME280;59471;42.254;23.102;2022-12-18T10:29:44;97113.94;;;6.93;73.17
71621;BME280;59471;42.254;23.102;2022-12-18T10:32:22;97113.00;;;6.94;74.23
71621;BME280;59471;42.254;23.102;2022-12-18T10:34:55;97116.31;;;6.96;72.51
71621;BME280;59471;42.254;23.102;2022-12-18T10:37:24;97113.69;;;6.96;73.77
71621;BME280;59471;42.254;23.102;2022-12-18T10:40:12;97109.19;;;6.98;73.21
71621;BME280;59471;42.254;23.102;2022-12-18T10:42:39;97108.78;;;6.82;73.45
71621;BME280;59471;42.254;23.102;2022-12-18T10:45:15;97113.19;;;7.02;73.14
71621;BME280;59471;42.254;23.102;2022-12-18T10:47:49;97112.53;;;7.00;72.66
71621;BME280;59471;42.254;23.102;2022-12-18T10:50:33;97093.91;;;6.72;70.84
71621;BME280;59471;42.254;23.102;2022-12-18T10:53:03;97107.22;;;6.90;73.35
71621;BME280;59471;42.254;23.102;2022-12-18T10:55:35;97109.28;;;7.08;71.25
71621;BME280;59471;42.254;23.102;2022-12-18T11:00:44;97103.00;;;6.67;72.36
71621;BME280;59471;42.254;23.102;2022-12-18T11:03:40;97102.44;;;6.52;73.35
71621;BME280;59471;42.254;23.102;2022-12-18T11:06:13;97103.16;;;6.65;72.79
71621;BME280;59471;42.254;23.102;2022-12-18T11:08:42;97108.50;;;6.53;72.42
71621;BME280;59471;42.254;23.102;2022-12-18T11:11:20;97101.97;;;6.58;72.48
71621;BME280;59471;42.254;23.102;2022-12-18T11:14:12;97108.41;;;6.86;73.59
71621;BME280;59471;42.254;23.102;2022-12-18T11:16:46;97104.88;;;7.08;72.37
71621;BME280;59471;42.254;23.102;2022-12-18T11:19:21;97104.03;;;7.40;72.40
71621;BME280;59471;42.254;23.102;2022-12-18T11:21:50;97107.59;;;7.39;72.08
71621;BME280;59471;42.254;23.102;2022-12-18T11:24:28;97112.81;;;7.39;71.34
71621;BME280;59471;42.254;23.102;2022-12-18T11:27:02;97117.88;;;7.19;71.15
71621;BME280;59471;42.254;23.102;2022-12-18T11:29:34;97119.94;;;7.37;70.39
71621;BME280;59471;42.254;23.102;2022-12-18T11:32:31;97119.59;;;7.09;70.70
71621;BME280;59471;42.254;23.102;2022-12-18T11:37:53;97133.91;;;7.36;69.19
71621;BME280;59471;42.254;23.102;2022-12-18T11:40:33;97124.25;;;7.27;71.67
71621;BME280;59471;42.254;23.102;2022-12-18T11:43:07;97130.59;;;7.34;69.42
71621;BME280;59471;42.254;23.102;2022-12-18T11:45:43;97132.03;;;7.38;69.92
71621;BME280;59471;42.254;23.102;2022-12-18T11:48:26;97129.84;;;7.22;68.55
71621;BME280;59471;42.254;23.102;2022-12-18T11:50:57;97133.84;;;6.94;70.59
71621;BME280;59471;42.254;23.102;2022-12-18T11:53:25;97134.78;;;6.93;71.65
71621;BME280;59471;42.254;23.102;2022-12-18T12:05:28;97121.00;;;6.59;70.95
71621;BME280;59471;42.254;23.102;2022-12-18T12:11:11;97119.13;;;7.04;71.04
71621;BME280;59471;42.254;23.102;2022-12-18T12:16:42;97113.25;;;6.91;70.94
71621;BME280;59471;42.254;23.102;2022-12-18T12:22:43;97124.81;;;6.98;70.65
71621;BME280;59471;42.254;23.102;2022-12-18T12:25:46;97126.13;;;6.92;70.97
71621;BME280;59471;42.254;23.102;2022-12-18T12:34:25;97121.38;;;7.30;72.47
71621;BME280;59471;42.254;23.102;2022-12-18T12:40:01;97130.59;;;7.13;71.72
71621;BME280;59471;42.254;23.102;2022-12-18T12:42:47;97139.06;;;7.26;71.16
71621;BME280;59471;42.254;23.102;2022-12-18T12:51:28;97145.72;;;6.76;70.38
71621;BME280;59471;42.254;23.102;2022-12-18T12:53:58;97143.81;;;6.78;70.75
71621;BME280;59471;42.254;23.102;2022-12-18T12:56:36;97153.97;;;6.81;71.13
71621;BME280;59471;42.254;23.102;2022-12-18T13:02:45;97141.81;;;6.81;70.96
71621;BME280;59471;42.254;23.102;2022-12-18T13:08:30;97161.81;;;6.69;71.11
71621;BME280;59471;42.254;23.102;2022-12-18T13:11:00;97162.53;;;6.60;70.99
71621;BME280;59471;42.254;23.102;2022-12-18T13:13:55;97168.69;;;6.48;70.62
71621;BME280;59471;42.254;23.102;2022-12-18T13:16:23;97173.66;;;6.51;71.10
71621;BME280;59471;42.254;23.102;2022-12-18T13:18:51;97181.09;;;6.78;71.58
71621;BME280;59471;42.254;23.102;2022-12-18T13:21:29;97181.16;;;6.99;69.76
71621;BME280;59471;42.254;23.102;2022-12-18T13:23:56;97176.00;;;6.88;69.46
71621;BME280;59471;42.254;23.102;2022-12-18T13:26:52;97172.44;;;6.89;68.79
71621;BME280;59471;42.254;23.102;2022-12-18T13:29:47;97181.34;;;6.75;67.10
71621;BME280;59471;42.254;23.102;2022-12-18T13:32:22;97186.19;;;6.91;70.01
71621;BME280;59471;42.254;23.102;2022-12-18T13:37:45;97192.72;;;6.40;67.49
71621;BME280;59471;42.254;23.102;2022-12-18T13:49:13;97190.94;;;6.30;65.52
71621;BME280;59471;42.254;23.102;2022-12-18T13:51:54;97195.44;;;6.39;64.12
71621;BME280;59471;42.254;23.102;2022-12-18T13:54:47;97193.19;;;6.34;65.54
71621;BME280;59471;42.254;23.102;2022-12-18T13:57:32;97200.19;;;6.34;64.64
71621;BME280;59471;42.254;23.102;2022-12-18T14:02:49;97203.47;;;6.58;62.70
71621;BME280;59471;42.254;23.102;2022-12-18T14:05:25;97200.53;;;6.40;63.33
71621;BME280;59471;42.254;23.102;2022-12-18T14:07:53;97199.94;;;6.48;65.89
71621;BME280;59471;42.254;23.102;2022-12-18T14:10:20;97194.72;;;6.48;64.47
71621;BME280;59471;42.254;23.102;2022-12-18T14:12:48;97191.78;;;6.53;65.50
71621;BME280;59471;42.254;23.102;2022-12-18T14:15:32;97194.00;;;6.57;63.46
71621;BME280;59471;42.254;23.102;2022-12-18T14:20:43;97205.59;;;6.19;66.51
71621;BME280;59471;42.254;23.102;2022-12-18T14:23:38;97210.75;;;5.97;65.68
71621;BME280;59471;42.254;23.102;2022-12-18T14:29:01;97214.69;;;6.02;67.53
71621;BME280;59471;42.254;23.102;2022-12-18T14:31:42;97210.53;;;6.11;65.15
71621;BME280;59471;42.254;23.102;2022-12-18T14:34:15;97206.00;;;5.91;66.13
71621;BME280;59471;42.254;23.102;2022-12-18T14:36:53;97216.63;;;5.88;64.93
71621;BME280;59471;42.254;23.102;2022-12-18T14:39:21;97221.81;;;5.88;66.98
71621;BME280;59471;42.254;23.102;2022-12-18T14:41:48;97217.53;;;5.75;67.22
71621;BME280;59471;42.254;23.102;2022-12-18T14:44:14;97216.31;;;5.68;66.97
71621;BME280;59471;42.254;23.102;2022-12-18T14:46:43;97226.50;;;5.71;67.36
71621;BME280;59471;42.254;23.102;2022-12-18T14:49:26;97224.19;;;5.91;68.31
71621;BME280;59471;42.254;23.102;2022-12-18T14:51:58;97224.91;;;5.57;66.28
71621;BME280;59471;42.254;23.102;2022-12-18T14:54:28;97232.59;;;5.59;68.00
71621;BME280;59471;42.254;23.102;2022-12-18T14:59:27;97231.16;;;5.55;68.03
71621;BME280;59471;42.254;23.102;2022-12-18T15:02:36;97220.00;;;5.42;68.17
71621;BME280;59471;42.254;23.102;2022-12-18T15:05:19;97215.97;;;5.38;69.56
71621;BME280;59471;42.254;23.102;2022-12-18T15:07:57;97223.31;;;5.44;69.38
71621;BME280;59471;42.254;23.102;2022-12-18T15:10:28;97222.53;;;5.30;69.46
71621;BME280;59471;42.254;23.102;2022-12-18T15:18:30;97228.56;;;5.55;68.32
71621;BME280;59471;42.254;23.102;2022-12-18T15:21:03;97225.84;;;5.32;69.21
71621;BME280;59471;42.254;23.102;2022-12-18T15:23:38;97222.09;;;5.37;69.04